createdAt,value
2018-03-23T00:00:02.989Z,6.437376
2018-03-23T00:00:15.121Z,8.04672
2018-03-23T00:00:27.246Z,8.04672
2018-03-23T00:00:39.389Z,9.656064
2018-03-23T00:00:51.532Z,8.04672
2018-03-23T00:01:03.693Z,6.437376
2018-03-23T00:01:15.877Z,4.828032
2018-03-23T00:01:28.023Z,6.437376
2018-03-23T00:01:40.162Z,6.437376
2018-03-23T00:01:52.306Z,4.828032
2018-03-23T00:02:04.478Z,3.218688
2018-03-23T00:02:16.630Z,3.218688
2018-03-23T00:02:28.771Z,4.828032
2018-03-23T00:02:40.908Z,6.437376
2018-03-23T00:02:53.070Z,6.437376
2018-03-23T00:03:05.212Z,6.437376
2018-03-23T00:03:17.363Z,6.437376
2018-03-23T00:03:29.508Z,6.437376
2018-03-23T00:03:41.655Z,6.437376
2018-03-23T00:03:53.788Z,6.437376
2018-03-23T00:04:05.931Z,6.437376
2018-03-23T00:04:18.062Z,8.04672
2018-03-23T00:04:30.230Z,6.437376
2018-03-23T00:04:42.364Z,9.656064
2018-03-23T00:04:54.538Z,11.265408
2018-03-23T00:05:06.669Z,11.265408
2018-03-23T00:05:18.789Z,9.656064
2018-03-23T00:05:30.917Z,8.04672
2018-03-23T00:05:43.070Z,6.437376
2018-03-23T00:05:55.200Z,9.656064
2018-03-23T00:06:07.376Z,8.04672
2018-03-23T00:06:19.512Z,6.437376
2018-03-23T00:06:31.659Z,3.218688
2018-03-23T00:06:43.786Z,6.437376
2018-03-23T00:06:55.949Z,4.828032
2018-03-23T00:07:08.134Z,6.437376
2018-03-23T00:07:20.325Z,3.218688
2018-03-23T00:07:32.462Z,4.828032
2018-03-23T00:07:44.634Z,6.437376
2018-03-23T00:07:56.841Z,6.437376
2018-03-23T00:08:09.075Z,8.04672
2018-03-23T00:08:21.208Z,9.656064
2018-03-23T00:08:33.364Z,8.04672
2018-03-23T00:08:45.500Z,6.437376
2018-03-23T00:08:57.632Z,4.828032
2018-03-23T00:09:09.787Z,3.218688
2018-03-23T00:09:21.939Z,6.437376
2018-03-23T00:09:34.102Z,6.437376
2018-03-23T00:09:46.304Z,8.04672
2018-03-23T00:09:58.448Z,6.437376
2018-03-23T00:10:10.643Z,6.437376
2018-03-23T00:10:22.780Z,8.04672
2018-03-23T00:10:34.927Z,3.218688
2018-03-23T00:10:47.136Z,3.218688
2018-03-23T00:10:59.262Z,4.828032
2018-03-23T00:11:11.411Z,4.828032
2018-03-23T00:11:23.742Z,3.218688
2018-03-23T00:11:35.880Z,1.609344
2018-03-23T00:11:48.025Z,1.609344
2018-03-23T00:12:00.178Z,4.828032
2018-03-23T00:12:12.348Z,6.437376
2018-03-23T00:12:24.488Z,6.437376
2018-03-23T00:12:36.631Z,3.218688
2018-03-23T00:12:49.003Z,1.609344
2018-03-23T00:13:01.151Z,3.218688
2018-03-23T00:13:13.277Z,1.609344
2018-03-23T00:13:25.402Z,3.218688
2018-03-23T00:13:37.545Z,4.828032
2018-03-23T00:13:49.700Z,3.218688
2018-03-23T00:14:01.839Z,1.609344
2018-03-23T00:14:13.971Z,1.609344
2018-03-23T00:14:26.109Z,1.609344
2018-03-23T00:14:38.243Z,1.609344
2018-03-23T00:14:50.378Z,1.609344
2018-03-23T00:15:02.561Z,1.609344
2018-03-23T00:15:14.694Z,1.609344
2018-03-23T00:15:26.870Z,6.437376
2018-03-23T00:15:39.016Z,4.828032
2018-03-23T00:15:51.166Z,3.218688
2018-03-23T00:16:03.358Z,3.218688
2018-03-23T00:16:15.642Z,3.218688
2018-03-23T00:16:27.809Z,3.218688
2018-03-23T00:16:39.957Z,3.218688
2018-03-23T00:16:52.093Z,3.218688
2018-03-23T00:17:04.254Z,3.218688
2018-03-23T00:17:16.441Z,1.609344
2018-03-23T00:17:28.578Z,3.218688
2018-03-23T00:17:40.717Z,1.609344
2018-03-23T00:17:52.861Z,1.609344
2018-03-23T00:18:05.002Z,1.609344
2018-03-23T00:18:17.133Z,1.609344
2018-03-23T00:18:29.276Z,6.437376
2018-03-23T00:18:41.415Z,6.437376
2018-03-23T00:18:53.544Z,3.218688
2018-03-23T00:19:05.707Z,4.828032
2018-03-23T00:19:18.106Z,3.218688
2018-03-23T00:19:30.263Z,4.828032
2018-03-23T00:19:42.392Z,3.218688
2018-03-23T00:19:54.520Z,1.609344
2018-03-23T00:20:06.662Z,1.609344
2018-03-23T00:20:18.805Z,1.609344
2018-03-23T00:20:30.940Z,1.609344
2018-03-23T00:20:43.127Z,3.218688
2018-03-23T00:20:55.258Z,1.609344
2018-03-23T00:21:07.572Z,1.609344
2018-03-23T00:21:19.727Z,0
2018-03-23T00:21:31.915Z,0
2018-03-23T00:21:44.075Z,0
2018-03-23T00:21:56.202Z,0
2018-03-23T00:22:08.331Z,1.609344
2018-03-23T00:22:20.461Z,1.609344
2018-03-23T00:22:32.583Z,1.609344
2018-03-23T00:22:44.736Z,4.828032
2018-03-23T00:22:56.882Z,1.609344
2018-03-23T00:23:09.016Z,3.218688
2018-03-23T00:23:21.145Z,3.218688
2018-03-23T00:23:33.268Z,3.218688
2018-03-23T00:23:45.418Z,6.437376
2018-03-23T00:23:57.557Z,3.218688
2018-03-23T00:24:09.692Z,1.609344
2018-03-23T00:24:21.838Z,3.218688
2018-03-23T00:24:34.065Z,3.218688
2018-03-23T00:24:46.193Z,3.218688
2018-03-23T00:24:58.324Z,1.609344
2018-03-23T00:25:10.458Z,3.218688
2018-03-23T00:25:22.592Z,1.609344
2018-03-23T00:25:34.728Z,1.609344
2018-03-23T00:25:46.861Z,3.218688
2018-03-23T00:25:59.025Z,3.218688
2018-03-23T00:26:11.184Z,3.218688
2018-03-23T00:26:23.316Z,9.656064
2018-03-23T00:26:35.494Z,6.437376
2018-03-23T00:26:47.646Z,3.218688
2018-03-23T00:26:59.793Z,4.828032
2018-03-23T00:27:11.924Z,3.218688
2018-03-23T00:27:24.053Z,3.218688
2018-03-23T00:27:36.178Z,3.218688
2018-03-23T00:27:48.727Z,3.218688
2018-03-23T00:28:00.862Z,3.218688
2018-03-23T00:28:13.016Z,3.218688
2018-03-23T00:28:25.145Z,4.828032
2018-03-23T00:28:37.277Z,8.04672
2018-03-23T00:28:49.473Z,8.04672
2018-03-23T00:29:01.621Z,6.437376
2018-03-23T00:29:13.768Z,8.04672
2018-03-23T00:29:25.914Z,8.04672
2018-03-23T00:29:38.092Z,6.437376
2018-03-23T00:29:50.237Z,6.437376
2018-03-23T00:30:02.365Z,3.218688
2018-03-23T00:30:14.517Z,3.218688
2018-03-23T00:30:26.660Z,1.609344
2018-03-23T00:30:38.853Z,1.609344
2018-03-23T00:30:50.985Z,3.218688
2018-03-23T00:31:03.104Z,8.04672
2018-03-23T00:31:15.243Z,9.656064
2018-03-23T00:31:27.373Z,8.04672
2018-03-23T00:31:39.504Z,6.437376
2018-03-23T00:31:51.638Z,3.218688
2018-03-23T00:32:03.789Z,3.218688
2018-03-23T00:32:16.078Z,6.437376
2018-03-23T00:32:28.272Z,4.828032
2018-03-23T00:32:40.404Z,9.656064
2018-03-23T00:32:52.565Z,8.04672
2018-03-23T00:33:04.755Z,9.656064
2018-03-23T00:33:16.888Z,9.656064
2018-03-23T00:33:29.020Z,11.265408
2018-03-23T00:33:41.183Z,11.265408
2018-03-23T00:33:53.311Z,8.04672
2018-03-23T00:34:05.488Z,8.04672
2018-03-23T00:34:17.621Z,6.437376
2018-03-23T00:34:29.746Z,6.437376
2018-03-23T00:34:41.928Z,6.437376
2018-03-23T00:34:54.064Z,3.218688
2018-03-23T00:35:06.197Z,3.218688
2018-03-23T00:35:18.323Z,3.218688
2018-03-23T00:35:30.470Z,1.609344
2018-03-23T00:35:42.605Z,3.218688
2018-03-23T00:35:54.759Z,6.437376
2018-03-23T00:36:06.899Z,6.437376
2018-03-23T00:36:19.029Z,6.437376
2018-03-23T00:36:31.155Z,8.04672
2018-03-23T00:36:43.293Z,6.437376
2018-03-23T00:36:55.422Z,8.04672
2018-03-23T00:37:07.618Z,6.437376
2018-03-23T00:37:19.755Z,1.609344
2018-03-23T00:37:32.048Z,1.609344
2018-03-23T00:37:44.199Z,1.609344
2018-03-23T00:37:56.326Z,3.218688
2018-03-23T00:38:08.458Z,3.218688
2018-03-23T00:38:20.599Z,6.437376
2018-03-23T00:38:32.734Z,6.437376
2018-03-23T00:38:44.911Z,3.218688
2018-03-23T00:38:57.038Z,8.04672
2018-03-23T00:39:09.181Z,4.828032
2018-03-23T00:39:21.338Z,6.437376
2018-03-23T00:39:33.468Z,8.04672
2018-03-23T00:39:45.593Z,8.04672
2018-03-23T00:39:57.723Z,8.04672
2018-03-23T00:40:09.892Z,3.218688
2018-03-23T00:40:22.034Z,1.609344
2018-03-23T00:40:34.188Z,11.265408
2018-03-23T00:40:46.359Z,8.04672
2018-03-23T00:40:58.500Z,6.437376
2018-03-23T00:41:10.767Z,4.828032
2018-03-23T00:41:22.915Z,4.828032
2018-03-23T00:41:35.062Z,4.828032
2018-03-23T00:41:47.197Z,3.218688
2018-03-23T00:41:59.355Z,3.218688
2018-03-23T00:42:11.500Z,4.828032
2018-03-23T00:42:23.648Z,6.437376
2018-03-23T00:42:35.782Z,3.218688
2018-03-23T00:42:47.986Z,3.218688
2018-03-23T00:43:00.108Z,3.218688
2018-03-23T00:43:12.244Z,3.218688
2018-03-23T00:43:24.383Z,3.218688
2018-03-23T00:43:36.542Z,4.828032
2018-03-23T00:43:48.704Z,3.218688
2018-03-23T00:44:00.837Z,1.609344
2018-03-23T00:44:12.981Z,1.609344
2018-03-23T00:44:25.224Z,3.218688
2018-03-23T00:44:37.399Z,1.609344
2018-03-23T00:44:49.547Z,3.218688
2018-03-23T00:45:01.682Z,1.609344
2018-03-23T00:45:13.818Z,1.609344
2018-03-23T00:45:25.966Z,3.218688
2018-03-23T00:45:38.105Z,6.437376
2018-03-23T00:45:50.248Z,6.437376
2018-03-23T00:46:02.379Z,6.437376
2018-03-23T00:46:14.556Z,8.04672
2018-03-23T00:46:26.682Z,9.656064
2018-03-23T00:46:39.051Z,9.656064
2018-03-23T00:46:51.182Z,11.265408
2018-03-23T00:47:03.319Z,12.874752
2018-03-23T00:47:15.634Z,11.265408
2018-03-23T00:47:27.770Z,12.874752
2018-03-23T00:47:39.920Z,11.265408
2018-03-23T00:47:52.190Z,6.437376
2018-03-23T00:48:04.320Z,6.437376
2018-03-23T00:48:16.464Z,9.656064
2018-03-23T00:48:28.675Z,9.656064
2018-03-23T00:48:40.807Z,8.04672
2018-03-23T00:48:52.965Z,8.04672
2018-03-23T00:49:05.106Z,9.656064
2018-03-23T00:49:17.237Z,11.265408
2018-03-23T00:49:29.366Z,8.04672
2018-03-23T00:49:41.493Z,6.437376
2018-03-23T00:49:53.628Z,8.04672
2018-03-23T00:50:05.784Z,6.437376
2018-03-23T00:50:17.942Z,11.265408
2018-03-23T00:50:30.081Z,9.656064
2018-03-23T00:50:42.226Z,9.656064
2018-03-23T00:50:54.374Z,6.437376
2018-03-23T00:51:06.537Z,3.218688
2018-03-23T00:51:18.692Z,6.437376
2018-03-23T00:51:30.832Z,6.437376
2018-03-23T00:51:42.980Z,4.828032
2018-03-23T00:51:55.136Z,6.437376
2018-03-23T00:52:07.311Z,1.609344
2018-03-23T00:52:19.450Z,8.04672
2018-03-23T00:52:31.652Z,12.874752
2018-03-23T00:52:43.790Z,11.265408
2018-03-23T00:52:56.014Z,8.04672
2018-03-23T00:53:08.163Z,6.437376
2018-03-23T00:53:20.292Z,8.04672
2018-03-23T00:53:32.442Z,6.437376
2018-03-23T00:53:44.600Z,6.437376
2018-03-23T00:53:56.790Z,6.437376
2018-03-23T00:54:08.922Z,8.04672
2018-03-23T00:54:21.065Z,6.437376
2018-03-23T00:54:33.205Z,8.04672
2018-03-23T00:54:45.394Z,4.828032
2018-03-23T00:54:57.531Z,3.218688
2018-03-23T00:55:09.720Z,1.609344
2018-03-23T00:55:21.869Z,9.656064
2018-03-23T00:55:34.295Z,8.04672
2018-03-23T00:55:46.494Z,8.04672
2018-03-23T00:55:58.646Z,4.828032
2018-03-23T00:56:10.782Z,6.437376
2018-03-23T00:56:22.913Z,9.656064
2018-03-23T00:56:35.049Z,8.04672
2018-03-23T00:56:47.256Z,9.656064
2018-03-23T00:56:59.409Z,11.265408
2018-03-23T00:57:11.548Z,12.874752
2018-03-23T00:57:23.731Z,14.484096
2018-03-23T00:57:36.101Z,9.656064
2018-03-23T00:57:48.260Z,12.874752
2018-03-23T00:58:00.418Z,8.04672
2018-03-23T00:58:12.579Z,9.656064
2018-03-23T00:58:24.724Z,9.656064
2018-03-23T00:58:36.926Z,8.04672
2018-03-23T00:58:49.067Z,14.484096
2018-03-23T00:59:01.197Z,8.04672
2018-03-23T00:59:13.345Z,9.656064
2018-03-23T00:59:25.547Z,9.656064
2018-03-23T00:59:37.988Z,8.04672
2018-03-23T00:59:50.144Z,9.656064
2018-03-23T01:00:02.292Z,9.656064
2018-03-23T01:00:14.472Z,9.656064
2018-03-23T01:00:26.607Z,8.04672
2018-03-23T01:00:38.734Z,9.656064
2018-03-23T01:00:50.875Z,8.04672
2018-03-23T01:01:03.009Z,16.09344
2018-03-23T01:01:15.171Z,12.874752
2018-03-23T01:01:27.302Z,14.484096
2018-03-23T01:01:39.445Z,9.656064
2018-03-23T01:01:51.581Z,12.874752
2018-03-23T01:02:03.737Z,14.484096
2018-03-23T01:02:15.894Z,14.484096
2018-03-23T01:02:28.028Z,14.484096
2018-03-23T01:02:40.176Z,11.265408
2018-03-23T01:02:52.319Z,11.265408
2018-03-23T01:03:04.451Z,11.265408
2018-03-23T01:03:16.651Z,16.09344
2018-03-23T01:03:28.798Z,14.484096
2018-03-23T01:03:40.957Z,17.702784
2018-03-23T01:03:53.109Z,11.265408
2018-03-23T01:04:05.241Z,9.656064
2018-03-23T01:04:17.390Z,9.656064
2018-03-23T01:04:29.538Z,12.874752
2018-03-23T01:04:41.682Z,14.484096
2018-03-23T01:04:53.824Z,14.484096
2018-03-23T01:05:05.964Z,12.874752
2018-03-23T01:05:18.127Z,9.656064
2018-03-23T01:05:30.272Z,11.265408
2018-03-23T01:05:42.421Z,8.04672
2018-03-23T01:05:54.558Z,8.04672
2018-03-23T01:06:06.694Z,8.04672
2018-03-23T01:06:18.826Z,9.656064
2018-03-23T01:06:31.167Z,12.874752
2018-03-23T01:06:43.488Z,11.265408
2018-03-23T01:06:55.625Z,9.656064
2018-03-23T01:07:07.787Z,11.265408
2018-03-23T01:07:19.921Z,11.265408
2018-03-23T01:07:32.049Z,9.656064
2018-03-23T01:07:44.195Z,4.828032
2018-03-23T01:07:56.354Z,9.656064
2018-03-23T01:08:08.500Z,12.874752
2018-03-23T01:08:20.709Z,11.265408
2018-03-23T01:08:32.897Z,8.04672
2018-03-23T01:08:45.044Z,11.265408
2018-03-23T01:08:57.200Z,11.265408
2018-03-23T01:09:09.348Z,12.874752
2018-03-23T01:09:21.494Z,8.04672
2018-03-23T01:09:33.643Z,8.04672
2018-03-23T01:09:45.789Z,9.656064
2018-03-23T01:09:57.933Z,11.265408
2018-03-23T01:10:10.085Z,12.874752
2018-03-23T01:10:22.228Z,9.656064
2018-03-23T01:10:34.388Z,9.656064
2018-03-23T01:10:46.532Z,11.265408
2018-03-23T01:10:58.694Z,9.656064
2018-03-23T01:11:10.824Z,8.04672
2018-03-23T01:11:23.162Z,11.265408
2018-03-23T01:11:35.309Z,8.04672
2018-03-23T01:11:47.462Z,9.656064
2018-03-23T01:11:59.597Z,9.656064
2018-03-23T01:12:11.738Z,8.04672
2018-03-23T01:12:23.929Z,8.04672
2018-03-23T01:12:36.065Z,6.437376
2018-03-23T01:12:48.344Z,9.656064
2018-03-23T01:13:00.488Z,8.04672
2018-03-23T01:13:12.628Z,8.04672
2018-03-23T01:13:24.764Z,11.265408
2018-03-23T01:13:36.969Z,12.874752
2018-03-23T01:13:49.351Z,9.656064
2018-03-23T01:14:01.503Z,9.656064
2018-03-23T01:14:13.656Z,8.04672
2018-03-23T01:14:25.859Z,8.04672
2018-03-23T01:14:38.445Z,6.437376
2018-03-23T01:14:50.585Z,8.04672
2018-03-23T01:15:02.720Z,8.04672
2018-03-23T01:15:14.863Z,8.04672
2018-03-23T01:15:27.016Z,9.656064
2018-03-23T01:15:39.148Z,9.656064
2018-03-23T01:15:51.308Z,9.656064
2018-03-23T01:16:03.440Z,6.437376
2018-03-23T01:16:15.571Z,8.04672
2018-03-23T01:16:27.724Z,8.04672
2018-03-23T01:16:39.874Z,6.437376
2018-03-23T01:16:52.017Z,8.04672
2018-03-23T01:17:04.385Z,11.265408
2018-03-23T01:17:16.548Z,11.265408
2018-03-23T01:17:28.695Z,11.265408
2018-03-23T01:17:40.827Z,11.265408
2018-03-23T01:17:52.981Z,16.09344
2018-03-23T01:18:05.118Z,16.09344
2018-03-23T01:18:17.276Z,9.656064
2018-03-23T01:18:29.412Z,9.656064
2018-03-23T01:18:41.553Z,9.656064
2018-03-23T01:18:53.741Z,11.265408
2018-03-23T01:19:05.875Z,11.265408
2018-03-23T01:19:18.009Z,6.437376
2018-03-23T01:19:30.192Z,6.437376
2018-03-23T01:19:42.330Z,8.04672
2018-03-23T01:19:54.475Z,3.218688
2018-03-23T01:20:06.630Z,6.437376
2018-03-23T01:20:18.766Z,6.437376
2018-03-23T01:20:30.947Z,12.874752
2018-03-23T01:20:43.139Z,11.265408
2018-03-23T01:20:55.274Z,11.265408
2018-03-23T01:21:07.399Z,8.04672
2018-03-23T01:21:19.533Z,6.437376
2018-03-23T01:21:31.676Z,3.218688
2018-03-23T01:21:43.844Z,4.828032
2018-03-23T01:21:56.114Z,11.265408
2018-03-23T01:22:08.320Z,11.265408
2018-03-23T01:22:20.461Z,12.874752
2018-03-23T01:22:32.692Z,12.874752
2018-03-23T01:22:44.830Z,8.04672
2018-03-23T01:22:56.967Z,9.656064
2018-03-23T01:23:09.127Z,11.265408
2018-03-23T01:23:21.269Z,11.265408
2018-03-23T01:23:33.424Z,8.04672
2018-03-23T01:23:45.567Z,6.437376
2018-03-23T01:23:57.698Z,4.828032
2018-03-23T01:24:09.897Z,9.656064
2018-03-23T01:24:22.097Z,8.04672
2018-03-23T01:24:34.239Z,11.265408
2018-03-23T01:24:46.382Z,6.437376
2018-03-23T01:24:58.512Z,6.437376
2018-03-23T01:25:10.671Z,3.218688
2018-03-23T01:25:22.807Z,8.04672
2018-03-23T01:25:34.956Z,6.437376
2018-03-23T01:25:47.101Z,3.218688
2018-03-23T01:25:59.253Z,6.437376
2018-03-23T01:26:11.397Z,8.04672
2018-03-23T01:26:23.548Z,11.265408
2018-03-23T01:26:35.685Z,11.265408
2018-03-23T01:26:47.846Z,11.265408
2018-03-23T01:27:00.041Z,12.874752
2018-03-23T01:27:12.171Z,12.874752
2018-03-23T01:27:24.320Z,16.09344
2018-03-23T01:27:36.448Z,12.874752
2018-03-23T01:27:48.888Z,11.265408
2018-03-23T01:28:01.052Z,8.04672
2018-03-23T01:28:13.189Z,11.265408
2018-03-23T01:28:25.384Z,6.437376
2018-03-23T01:28:37.561Z,8.04672
2018-03-23T01:28:49.707Z,3.218688
2018-03-23T01:29:01.831Z,8.04672
2018-03-23T01:29:13.966Z,9.656064
2018-03-23T01:29:26.092Z,6.437376
2018-03-23T01:29:38.290Z,3.218688
2018-03-23T01:29:50.445Z,8.04672
2018-03-23T01:30:02.577Z,9.656064
2018-03-23T01:30:14.776Z,9.656064
2018-03-23T01:30:26.909Z,8.04672
2018-03-23T01:30:39.056Z,8.04672
2018-03-23T01:30:51.194Z,6.437376
2018-03-23T01:31:03.364Z,9.656064
2018-03-23T01:31:15.526Z,8.04672
2018-03-23T01:31:27.686Z,6.437376
2018-03-23T01:31:39.909Z,9.656064
2018-03-23T01:31:52.065Z,8.04672
2018-03-23T01:32:04.200Z,11.265408
2018-03-23T01:32:16.438Z,9.656064
2018-03-23T01:32:28.576Z,9.656064
2018-03-23T01:32:40.708Z,9.656064
2018-03-23T01:32:52.843Z,8.04672
2018-03-23T01:33:04.992Z,8.04672
2018-03-23T01:33:17.144Z,11.265408
2018-03-23T01:33:29.288Z,11.265408
2018-03-23T01:33:41.468Z,9.656064
2018-03-23T01:33:53.600Z,9.656064
2018-03-23T01:34:05.747Z,11.265408
2018-03-23T01:34:17.895Z,9.656064
2018-03-23T01:34:30.046Z,8.04672
2018-03-23T01:34:42.208Z,8.04672
2018-03-23T01:34:54.359Z,9.656064
2018-03-23T01:35:06.519Z,8.04672
2018-03-23T01:35:18.687Z,8.04672
2018-03-23T01:35:30.828Z,8.04672
2018-03-23T01:35:42.955Z,6.437376
2018-03-23T01:35:55.161Z,6.437376
2018-03-23T01:36:07.293Z,6.437376
2018-03-23T01:36:19.438Z,3.218688
2018-03-23T01:36:31.689Z,6.437376
2018-03-23T01:36:44.067Z,3.218688
2018-03-23T01:36:56.212Z,8.04672
2018-03-23T01:37:08.355Z,6.437376
2018-03-23T01:37:20.542Z,8.04672
2018-03-23T01:37:32.880Z,9.656064
2018-03-23T01:37:45.038Z,6.437376
2018-03-23T01:37:57.180Z,6.437376
2018-03-23T01:38:09.321Z,8.04672
2018-03-23T01:38:21.452Z,8.04672
2018-03-23T01:38:33.642Z,11.265408
2018-03-23T01:38:45.808Z,9.656064
2018-03-23T01:38:57.936Z,11.265408
2018-03-23T01:39:10.097Z,12.874752
2018-03-23T01:39:22.401Z,9.656064
2018-03-23T01:39:34.549Z,8.04672
2018-03-23T01:39:46.682Z,11.265408
2018-03-23T01:39:58.878Z,14.484096
2018-03-23T01:40:11.031Z,11.265408
2018-03-23T01:40:23.172Z,12.874752
2018-03-23T01:40:35.331Z,11.265408
2018-03-23T01:40:47.487Z,11.265408
2018-03-23T01:40:59.723Z,9.656064
2018-03-23T01:41:12.042Z,9.656064
2018-03-23T01:41:24.190Z,4.828032
2018-03-23T01:41:36.344Z,9.656064
2018-03-23T01:41:48.479Z,8.04672
2018-03-23T01:42:00.626Z,4.828032
2018-03-23T01:42:12.762Z,6.437376
2018-03-23T01:42:24.909Z,8.04672
2018-03-23T01:42:37.040Z,12.874752
2018-03-23T01:42:49.182Z,11.265408
2018-03-23T01:43:01.335Z,8.04672
2018-03-23T01:43:13.474Z,6.437376
2018-03-23T01:43:25.616Z,6.437376
2018-03-23T01:43:37.756Z,3.218688
2018-03-23T01:43:49.946Z,1.609344
2018-03-23T01:44:02.143Z,6.437376
2018-03-23T01:44:14.285Z,3.218688
2018-03-23T01:44:26.428Z,3.218688
2018-03-23T01:44:38.572Z,4.828032
2018-03-23T01:44:50.714Z,4.828032
2018-03-23T01:45:02.852Z,6.437376
2018-03-23T01:45:14.997Z,3.218688
2018-03-23T01:45:27.130Z,3.218688
2018-03-23T01:45:39.270Z,8.04672
2018-03-23T01:45:51.407Z,8.04672
2018-03-23T01:46:03.627Z,6.437376
2018-03-23T01:46:15.797Z,1.609344
2018-03-23T01:46:27.954Z,3.218688
2018-03-23T01:46:40.112Z,9.656064
2018-03-23T01:46:52.244Z,11.265408
2018-03-23T01:47:04.396Z,11.265408
2018-03-23T01:47:16.536Z,11.265408
2018-03-23T01:47:28.798Z,4.828032
2018-03-23T01:47:40.934Z,6.437376
2018-03-23T01:47:53.162Z,6.437376
2018-03-23T01:48:05.323Z,8.04672
2018-03-23T01:48:17.470Z,11.265408
2018-03-23T01:48:29.618Z,9.656064
2018-03-23T01:48:41.750Z,6.437376
2018-03-23T01:48:53.902Z,6.437376
2018-03-23T01:49:06.062Z,4.828032
2018-03-23T01:49:18.200Z,3.218688
2018-03-23T01:49:30.344Z,1.609344
2018-03-23T01:49:42.490Z,4.828032
2018-03-23T01:49:54.642Z,3.218688
2018-03-23T01:50:06.797Z,3.218688
2018-03-23T01:50:19.021Z,1.609344
2018-03-23T01:50:31.183Z,11.265408
2018-03-23T01:50:43.321Z,11.265408
2018-03-23T01:50:55.474Z,8.04672
2018-03-23T01:51:07.624Z,4.828032
2018-03-23T01:51:19.774Z,4.828032
2018-03-23T01:51:31.918Z,8.04672
2018-03-23T01:51:44.063Z,8.04672
2018-03-23T01:51:56.200Z,9.656064
2018-03-23T01:52:08.353Z,6.437376
2018-03-23T01:52:20.507Z,8.04672
2018-03-23T01:52:32.661Z,8.04672
2018-03-23T01:52:44.798Z,9.656064
2018-03-23T01:52:57.053Z,8.04672
2018-03-23T01:53:09.580Z,6.437376
2018-03-23T01:53:21.722Z,4.828032
2018-03-23T01:53:33.846Z,6.437376
2018-03-23T01:53:46.015Z,14.484096
2018-03-23T01:53:58.143Z,9.656064
2018-03-23T01:54:10.280Z,8.04672
2018-03-23T01:54:22.430Z,8.04672
2018-03-23T01:54:34.574Z,11.265408
2018-03-23T01:54:46.720Z,9.656064
2018-03-23T01:54:58.898Z,12.874752
2018-03-23T01:55:11.046Z,6.437376
2018-03-23T01:55:23.218Z,3.218688
2018-03-23T01:55:35.405Z,9.656064
2018-03-23T01:55:47.548Z,9.656064
2018-03-23T01:55:59.698Z,11.265408
2018-03-23T01:56:11.847Z,9.656064
2018-03-23T01:56:24.004Z,6.437376
2018-03-23T01:56:36.145Z,9.656064
2018-03-23T01:56:48.283Z,6.437376
2018-03-23T01:57:00.410Z,4.828032
2018-03-23T01:57:12.697Z,6.437376
2018-03-23T01:57:25.030Z,6.437376
2018-03-23T01:57:37.164Z,8.04672
2018-03-23T01:57:49.309Z,9.656064
2018-03-23T01:58:01.548Z,9.656064
2018-03-23T01:58:13.783Z,6.437376
2018-03-23T01:58:25.910Z,3.218688
2018-03-23T01:58:38.044Z,6.437376
2018-03-23T01:58:50.238Z,8.04672
2018-03-23T01:59:02.454Z,3.218688
2018-03-23T01:59:14.605Z,9.656064
2018-03-23T01:59:26.818Z,11.265408
2018-03-23T01:59:38.977Z,9.656064
2018-03-23T01:59:51.105Z,9.656064
2018-03-23T02:00:03.249Z,8.04672
2018-03-23T02:00:15.410Z,8.04672
2018-03-23T02:00:27.556Z,8.04672
2018-03-23T02:00:39.702Z,9.656064
2018-03-23T02:00:51.989Z,8.04672
2018-03-23T02:01:04.127Z,9.656064
2018-03-23T02:01:16.264Z,8.04672
2018-03-23T02:01:28.468Z,4.828032
2018-03-23T02:01:40.605Z,9.656064
2018-03-23T02:01:52.742Z,6.437376
2018-03-23T02:02:04.885Z,6.437376
2018-03-23T02:02:17.036Z,4.828032
2018-03-23T02:02:29.226Z,3.218688
2018-03-23T02:02:41.365Z,3.218688
2018-03-23T02:02:53.494Z,6.437376
2018-03-23T02:03:05.630Z,6.437376
2018-03-23T02:03:17.913Z,8.04672
2018-03-23T02:03:30.118Z,8.04672
2018-03-23T02:03:42.375Z,8.04672
2018-03-23T02:03:54.535Z,6.437376
2018-03-23T02:04:06.697Z,6.437376
2018-03-23T02:04:18.887Z,3.218688
2018-03-23T02:04:31.121Z,3.218688
2018-03-23T02:04:43.265Z,8.04672
2018-03-23T02:04:55.400Z,12.874752
2018-03-23T02:05:07.543Z,9.656064
2018-03-23T02:05:19.689Z,9.656064
2018-03-23T02:05:31.835Z,8.04672
2018-03-23T02:05:44.035Z,9.656064
2018-03-23T02:05:56.428Z,8.04672
2018-03-23T02:06:08.574Z,9.656064
2018-03-23T02:06:20.703Z,9.656064
2018-03-23T02:06:32.852Z,8.04672
2018-03-23T02:06:44.996Z,8.04672
2018-03-23T02:06:57.144Z,9.656064
2018-03-23T02:07:09.293Z,8.04672
2018-03-23T02:07:21.433Z,1.609344
2018-03-23T02:07:33.624Z,3.218688
2018-03-23T02:07:45.771Z,4.828032
2018-03-23T02:07:57.922Z,3.218688
2018-03-23T02:08:10.070Z,1.609344
2018-03-23T02:08:22.248Z,1.609344
2018-03-23T02:08:34.383Z,8.04672
2018-03-23T02:08:46.516Z,9.656064
2018-03-23T02:08:58.657Z,6.437376
2018-03-23T02:09:10.795Z,9.656064
2018-03-23T02:09:22.987Z,14.484096
2018-03-23T02:09:35.110Z,9.656064
2018-03-23T02:09:47.292Z,8.04672
2018-03-23T02:09:59.434Z,6.437376
2018-03-23T02:10:11.566Z,8.04672
2018-03-23T02:10:23.767Z,8.04672
2018-03-23T02:10:35.926Z,8.04672
2018-03-23T02:10:48.092Z,8.04672
2018-03-23T02:11:00.215Z,3.218688
2018-03-23T02:11:12.400Z,4.828032
2018-03-23T02:11:24.606Z,3.218688
2018-03-23T02:11:36.757Z,6.437376
2018-03-23T02:11:48.932Z,8.04672
2018-03-23T02:12:01.063Z,3.218688
2018-03-23T02:12:13.201Z,4.828032
2018-03-23T02:12:25.333Z,3.218688
2018-03-23T02:12:37.458Z,4.828032
2018-03-23T02:12:49.791Z,3.218688
2018-03-23T02:13:01.923Z,3.218688
2018-03-23T02:13:14.318Z,3.218688
2018-03-23T02:13:26.468Z,6.437376
2018-03-23T02:13:38.596Z,6.437376
2018-03-23T02:13:50.760Z,6.437376
2018-03-23T02:14:02.942Z,3.218688
2018-03-23T02:14:15.054Z,6.437376
2018-03-23T02:14:27.190Z,6.437376
2018-03-23T02:14:39.326Z,1.609344
2018-03-23T02:14:51.464Z,1.609344
2018-03-23T02:15:03.641Z,3.218688
2018-03-23T02:15:15.770Z,4.828032
2018-03-23T02:15:27.929Z,1.609344
2018-03-23T02:15:40.065Z,3.218688
2018-03-23T02:15:52.190Z,1.609344
2018-03-23T02:16:04.328Z,1.609344
2018-03-23T02:16:16.479Z,1.609344
2018-03-23T02:16:28.607Z,1.609344
2018-03-23T02:16:40.795Z,3.218688
2018-03-23T02:16:52.926Z,3.218688
2018-03-23T02:17:05.059Z,1.609344
2018-03-23T02:17:17.187Z,4.828032
2018-03-23T02:17:29.372Z,1.609344
2018-03-23T02:17:41.691Z,3.218688
2018-03-23T02:17:53.877Z,3.218688
2018-03-23T02:18:06.014Z,6.437376
2018-03-23T02:18:18.147Z,3.218688
2018-03-23T02:18:30.290Z,3.218688
2018-03-23T02:18:42.487Z,4.828032
2018-03-23T02:18:54.632Z,3.218688
2018-03-23T02:19:06.759Z,3.218688
2018-03-23T02:19:18.887Z,3.218688
2018-03-23T02:19:31.050Z,4.828032
2018-03-23T02:19:43.174Z,6.437376
2018-03-23T02:19:55.308Z,4.828032
2018-03-23T02:20:07.437Z,9.656064
2018-03-23T02:20:19.569Z,8.04672
2018-03-23T02:20:31.695Z,3.218688
2018-03-23T02:20:43.809Z,8.04672
2018-03-23T02:20:55.948Z,9.656064
2018-03-23T02:21:08.093Z,6.437376
2018-03-23T02:21:20.255Z,6.437376
2018-03-23T02:21:32.534Z,6.437376
2018-03-23T02:21:45.108Z,4.828032
2018-03-23T02:21:57.223Z,8.04672
2018-03-23T02:22:09.370Z,9.656064
2018-03-23T02:22:21.498Z,6.437376
2018-03-23T02:22:33.638Z,8.04672
2018-03-23T02:22:45.810Z,6.437376
2018-03-23T02:22:57.958Z,9.656064
2018-03-23T02:23:10.118Z,8.04672